createdAt,value
2022-11-26T00:18:29.541Z,19.2
2022-11-26T00:48:29.565Z,19.1
2022-11-26T01:18:29.564Z,19.1
2022-11-26T01:48:29.577Z,19.1
2022-11-26T02:18:29.637Z,19.0
2022-11-26T02:48:29.574Z,19.0
2022-11-26T03:18:29.553Z,18.9
2022-11-26T03:48:29.584Z,18.8
2022-11-26T04:18:29.584Z,18.8
2022-11-26T04:48:29.573Z,18.8
2022-11-26T05:18:29.538Z,18.8
2022-11-26T05:48:29.553Z,19.0
2022-11-26T06:18:29.616Z,19.0
2022-11-26T06:48:29.611Z,19.1
2022-11-26T07:18:30.225Z,19.1
2022-11-26T07:48:29.564Z,19.3
2022-11-26T08:18:29.581Z,19.4
2022-11-26T08:48:29.594Z,19.5
2022-11-26T09:18:29.621Z,19.5
2022-11-26T09:48:29.439Z,19.5
2022-11-26T10:18:29.771Z,19.6
2022-11-26T10:48:29.621Z,19.5
2022-11-26T11:18:29.764Z,19.5
2022-11-26T11:48:29.563Z,19.6
2022-11-26T12:18:29.731Z,19.5
2022-11-26T12:48:29.756Z,19.5
2022-11-26T13:18:29.740Z,19.5
2022-11-26T13:48:29.713Z,19.5
2022-11-26T14:18:29.811Z,19.6
2022-11-26T14:48:29.737Z,19.6
2022-11-26T15:18:29.757Z,19.6
2022-11-26T15:48:29.538Z,19.6
2022-11-26T16:18:29.558Z,19.7
2022-11-26T16:48:29.567Z,19.7
2022-11-26T17:18:29.762Z,19.7
2022-11-26T17:48:29.604Z,19.8
2022-11-26T18:18:29.534Z,19.8
2022-11-26T18:48:29.678Z,19.8
2022-11-26T19:18:29.624Z,19.8
2022-11-26T19:48:29.748Z,19.6
2022-11-26T20:18:29.739Z,19.5
2022-11-26T20:48:29.594Z,19.5
2022-11-26T21:18:29.564Z,19.4
2022-11-26T21:48:29.629Z,19.3
2022-11-26T22:18:29.602Z,19.2
2022-11-26T22:48:29.546Z,19.1
2022-11-26T23:18:29.555Z,19.1
2022-11-26T23:48:29.574Z,19.0
